Time;durP1;ratioP1;P1;durP2;ratioP2;P2;SDS_P1;SDS_P2;PMS_P1;PMS_P2;Temp;Humidity;BMP_temperature;BMP_pressure;BME280_temperature;BME280_humidity;BME280_pressure;Samples;Min_cycle;Max_cycle;Signal;HPM_P1;HPM_P2
2021/01/05 00:00:43;;;;;;;28.93;14.00;;;;;;;3.83;85.17;100652.77;127762;1092;104203;-74
2021/01/05 00:03:13;;;;;;;22.77;9.83;;;;;;;3.83;85.38;100652.77;127813;1092;104718;-74
2021/01/05 00:05:43;;;;;;;25.63;12.30;;;;;;;3.79;85.47;100653.39;127793;1092;104224;-73
2021/01/05 00:08:13;;;;;;;24.17;11.20;;;;;;;3.74;85.09;100649.58;127740;1091;104212;-74
2021/01/05 00:10:43;;;;;;;26.53;12.23;;;;;;;3.72;85.62;100640.80;127787;1092;104352;-75
2021/01/05 00:13:13;;;;;;;26.93;12.73;;;;;;;3.71;85.54;100641.59;127716;1091;104221;-75
2021/01/05 00:15:43;;;;;;;26.33;11.83;;;;;;;3.72;85.12;100651.19;127817;1091;104256;-72
2021/01/05 00:18:13;;;;;;;23.20;10.75;;;;;;;3.72;84.99;100643.39;127787;1091;104205;-75
2021/01/05 00:20:43;;;;;;;24.37;10.43;;;;;;;3.63;85.16;100643.71;127776;1091;104215;-73
2021/01/05 00:23:13;;;;;;;22.23;9.53;;;;;;;3.58;85.13;100635.62;127779;1092;104433;-75
2021/01/05 00:25:43;;;;;;;22.30;9.60;;;;;;;3.53;84.70;100636.11;127770;1092;104283;-74
2021/01/05 00:28:14;;;;;;;25.00;10.47;;;;;;;3.49;84.75;100629.83;127804;1092;104731;-74
2021/01/05 00:30:43;;;;;;;22.30;9.23;;;;;;;3.49;84.66;100634.09;127770;1092;104286;-75
2021/01/05 00:33:13;;;;;;;21.03;8.93;;;;;;;3.44;84.55;100632.91;127818;1091;104225;-74
2021/01/05 00:35:43;;;;;;;22.57;9.40;;;;;;;3.36;85.28;100634.98;127833;1092;104231;-74
2021/01/05 00:38:13;;;;;;;21.43;8.50;;;;;;;3.31;84.45;100631.20;127782;1091;104212;-74
2021/01/05 00:40:43;;;;;;;19.80;7.67;;;;;;;3.26;84.88;100635.16;127779;1091;104721;-74
2021/01/05 00:43:13;;;;;;;20.43;8.73;;;;;;;3.21;84.77;100634.84;127772;1091;104264;-74
2021/01/05 00:45:43;;;;;;;23.27;10.00;;;;;;;3.19;84.79;100632.15;127808;1092;104353;-72
2021/01/05 00:48:16;;;;;;;21.20;8.13;;;;;;;3.21;85.42;100637.44;127798;1092;104198;-73
2021/01/05 00:50:46;;;;;;;21.10;8.53;;;;;;;3.26;85.36;100637.75;127769;1091;104227;-73
2021/01/05 00:53:16;;;;;;;13.60;6.10;;;;;;;3.24;84.97;100642.83;127797;1091;104311;-74
2021/01/05 00:55:46;;;;;;;18.77;7.43;;;;;;;3.13;84.54;100620.47;127800;1091;104337;-73
2021/01/05 00:58:18;;;;;;;15.67;6.87;;;;;;;3.07;84.44;100618.39;127611;1092;104307;-74
2021/01/05 01:00:48;;;;;;;17.10;7.80;;;;;;;3.03;84.52;100606.89;127761;1091;104343;-73
2021/01/05 01:03:19;;;;;;;19.37;7.73;;;;;;;2.92;84.46;100600.09;127608;1092;104221;-73
2021/01/05 01:05:49;;;;;;;17.07;7.73;;;;;;;2.90;85.08;100590.40;127796;1091;104716;-73
2021/01/05 01:08:21;;;;;;;16.60;7.57;;;;;;;2.88;84.95;100604.18;127774;1091;104734;-74
2021/01/05 01:10:53;;;;;;;16.30;6.23;;;;;;;2.81;84.48;100608.84;127801;1091;104288;-74
2021/01/05 01:13:24;;;;;;;16.07;6.80;;;;;;;2.76;84.79;100603.34;127805;1091;104353;-73
2021/01/05 01:15:54;;;;;;;14.77;6.90;;;;;;;2.69;84.74;100606.29;127762;1092;104214;-73
2021/01/05 01:18:24;;;;;;;17.67;7.70;;;;;;;2.65;85.32;100605.19;127821;1091;104215;-73
2021/01/05 01:20:54;;;;;;;17.83;7.73;;;;;;;2.64;84.65;100597.31;127770;1093;104221;-72
2021/01/05 01:23:27;;;;;;;15.67;6.90;;;;;;;2.62;85.25;100585.95;127810;1091;104205;-73
2021/01/05 01:25:59;;;;;;;18.33;7.57;;;;;;;2.61;85.22;100586.73;127796;1092;104205;-73
2021/01/05 01:28:29;;;;;;;17.23;7.60;;;;;;;2.61;84.72;100591.92;127740;1092;104388;-73
2021/01/05 01:30:59;;;;;;;18.43;7.83;;;;;;;2.58;84.59;100591.70;127798;1092;104293;-73
2021/01/05 01:33:34;;;;;;;15.63;6.57;;;;;;;2.55;85.31;100588.91;127746;1092;104250;-74
2021/01/05 01:36:07;;;;;;;17.35;7.10;;;;;;;2.49;84.87;100587.70;127810;1092;104253;-73
2021/01/05 01:38:37;;;;;;;16.10;6.70;;;;;;;2.46;84.55;100577.13;127842;1091;104216;-73
2021/01/05 01:41:08;;;;;;;18.97;7.50;;;;;;;2.42;84.52;100582.87;127850;1091;104222;-73
2021/01/05 01:43:38;;;;;;;14.43;6.10;;;;;;;2.38;84.23;100580.84;127814;1091;104342;-73
2021/01/05 01:46:15;;;;;;;16.43;5.97;;;;;;;2.33;84.71;100587.41;127839;1091;104709;-74
2021/01/05 01:48:46;;;;;;;18.90;7.47;;;;;;;2.27;85.00;100576.62;127793;1092;104295;-73
2021/01/05 01:51:17;;;;;;;17.37;7.43;;;;;;;2.28;84.48;100581.02;127806;1091;104319;-73
2021/01/05 01:54:19;;;;;;;14.20;6.60;;;;;;;2.32;85.11;100588.19;127737;1092;104291;-74
2021/01/05 01:57:13;;;;;;;16.87;7.27;;;;;;;2.34;85.05;100571.09;127788;1091;104260;-72
2021/01/05 02:00:03;;;;;;;17.03;6.43;;;;;;;2.32;84.15;100568.39;127779;1091;104250;-75
2021/01/05 02:03:10;;;;;;;18.40;6.77;;;;;;;2.22;84.62;100571.12;127826;1091;104214;-73
2021/01/05 02:05:50;;;;;;;16.57;7.03;;;;;;;2.11;84.43;100578.12;127736;1092;104208;-73
2021/01/05 02:08:34;;;;;;;15.33;6.07;;;;;;;2.02;84.76;100561.95;127794;1091;104670;-73
2021/01/05 02:11:16;;;;;;;16.12;7.30;;;;;;;1.94;84.40;100565.69;127834;1092;104333;-73
2021/01/05 02:14:08;;;;;;;16.23;6.33;;;;;;;1.90;84.80;100569.76;127734;1092;104272;-73
2021/01/05 02:17:05;;;;;;;16.53;6.30;;;;;;;1.83;84.84;100569.20;127721;1092;104415;-72
2021/01/05 02:19:46;;;;;;;21.00;7.53;;;;;;;1.76;84.39;100566.18;127771;1092;104529;-73
2021/01/05 02:22:29;;;;;;;19.37;6.70;;;;;;;1.76;85.06;100557.50;127765;1091;104343;-73
2021/01/05 02:25:09;;;;;;;17.53;6.67;;;;;;;1.78;85.06;100563.70;127806;1091;104232;-74
2021/01/05 02:27:59;;;;;;;19.47;7.87;;;;;;;1.74;84.04;100559.98;127761;1091;104212;-73
2021/01/05 02:30:37;;;;;;;21.17;8.33;;;;;;;1.69;84.24;100555.28;127535;1092;104266;-73
2021/01/05 02:33:26;;;;;;;19.27;8.07;;;;;;;1.69;84.99;100563.04;127764;1091;104205;-75
2021/01/05 02:36:23;;;;;;;19.50;8.53;;;;;;;1.70;84.60;100551.88;127780;1092;104369;-73
2021/01/05 02:39:28;;;;;;;20.80;8.97;;;;;;;1.74;84.73;100557.39;127817;1091;104233;-74
2021/01/05 02:42:39;;;;;;;22.00;9.30;;;;;;;1.73;84.42;100546.93;127799;1092;104225;-73
2021/01/05 02:45:30;;;;;;;23.35;9.30;;;;;;;1.74;85.27;100538.39;127800;1091;104199;-74
2021/01/05 02:48:28;;;;;;;23.13;10.27;;;;;;;1.72;85.13;100522.76;127808;1092;104324;-74
2021/01/05 02:51:48;;;;;;;26.27;11.53;;;;;;;1.73;85.44;100516.81;127761;1091;104292;-73
2021/01/05 02:55:08;;;;;;;24.07;10.03;;;;;;;1.80;84.42;100523.30;127818;1091;104225;-74
2021/01/05 02:58:10;;;;;;;20.63;8.57;;;;;;;1.83;84.65;100528.70;127774;1091;104208;-74
2021/01/05 03:01:23;;;;;;;23.87;9.90;;;;;;;1.82;84.66;100520.83;127824;1092;104211;-74
2021/01/05 03:04:03;;;;;;;23.60;10.13;;;;;;;1.86;84.45;100517.67;127820;1092;104215;-74
2021/01/05 03:06:49;;;;;;;23.00;10.43;;;;;;;1.90;84.50;100518.00;127721;1091;104331;-75
2021/01/05 03:09:51;;;;;;;;;;;;;;;1.93;85.18;100520.80;127815;1091;104215;-74
2021/01/05 03:12:46;;;;;;;20.70;8.20;;;;;;;1.90;84.54;100519.67;127818;1091;104419;-74
2021/01/05 03:15:44;;;;;;;23.93;10.63;;;;;;;1.87;84.66;100519.45;127787;1092;104324;-74
2021/01/05 03:18:45;;;;;;;26.53;11.17;;;;;;;1.89;84.72;100517.89;127805;1091;104365;-74
2021/01/05 03:21:38;;;;;;;27.70;10.97;;;;;;;1.87;84.26;100527.22;127768;1091;104339;-73
2021/01/05 03:24:26;;;;;;;24.65;11.15;;;;;;;1.88;84.25;100532.50;127786;1091;104298;-74
2021/01/05 03:27:16;;;;;;;23.73;9.70;;;;;;;1.91;84.36;100527.54;127795;1091;104679;-75
2021/01/05 03:30:09;;;;;;;24.87;11.00;;;;;;;1.92;84.61;100528.46;127757;1091;104282;-72
2021/01/05 03:32:54;;;;;;;31.70;12.70;;;;;;;1.95;84.57;100513.15;127788;1091;104212;-75
2021/01/05 03:35:45;;;;;;;20.13;7.47;;;;;;;2.04;84.62;100502.52;127774;1092;104334;-74
2021/01/05 03:38:34;;;;;;;26.97;11.67;;;;;;;2.02;84.73;100486.00;127827;1091;104289;-75
2021/01/05 03:41:23;;;;;;;25.20;10.93;;;;;;;2.03;84.69;100499.05;127756;1091;104209;-74
2021/01/05 03:44:04;;;;;;;27.87;12.73;;;;;;;2.03;84.55;100517.16;127808;1091;104240;-74
2021/01/05 03:46:54;;;;;;;24.60;10.53;;;;;;;2.05;84.10;100540.57;127792;1092;104209;-75
2021/01/05 03:49:33;;;;;;;29.05;12.20;;;;;;;2.01;84.77;100544.64;127777;1091;104343;-75
2021/01/05 03:52:14;;;;;;;28.53;12.47;;;;;;;1.99;84.72;100551.38;127833;1091;104248;-73
2021/01/05 03:55:05;;;;;;;28.80;12.63;;;;;;;2.03;84.85;100544.75;127782;1092;104212;-73
2021/01/05 03:57:54;;;;;;;29.90;13.53;;;;;;;2.09;84.75;100522.77;127807;1092;104213;-73
2021/01/05 04:00:34;;;;;;;30.60;14.40;;;;;;;2.09;85.38;100514.12;127777;1091;104346;-76
2021/01/05 04:03:06;;;;;;;29.20;13.13;;;;;;;2.16;84.82;100514.62;127763;1091;104340;-75
2021/01/05 04:05:36;;;;;;;31.20;14.53;;;;;;;2.16;84.97;100499.09;127661;1091;104211;-74
2021/01/05 04:08:08;;;;;;;29.03;12.20;;;;;;;2.16;85.00;100487.84;127556;1091;104658;-75
2021/01/05 04:10:38;;;;;;;34.70;14.27;;;;;;;2.14;84.29;100495.50;127581;1092;104209;-75
2021/01/05 04:13:08;;;;;;;29.50;12.83;;;;;;;2.20;85.15;100496.71;127581;1092;104451;-75
2021/01/05 04:15:38;;;;;;;32.33;15.17;;;;;;;2.20;85.13;100510.58;128928;1092;102019;-75
2021/01/05 04:18:08;;;;;;;34.17;15.73;;;;;;;2.25;85.16;100501.42;128544;1092;104215;-75
2021/01/05 04:20:38;;;;;;;31.37;14.70;;;;;;;2.31;85.03;100493.19;127632;1091;104205;-75
2021/01/05 04:23:09;;;;;;;29.03;13.40;;;;;;;2.36;85.26;100483.15;127783;1091;104307;-76
2021/01/05 04:25:39;;;;;;;28.43;13.37;;;;;;;2.39;84.51;100473.88;127671;1091;104333;-74
2021/01/05 04:28:09;;;;;;;31.40;14.97;;;;;;;2.43;84.91;100480.16;127778;1092;104214;-74
2021/01/05 04:30:39;;;;;;;25.33;12.00;;;;;;;2.44;84.95;100472.49;127784;1092;104282;-75
2021/01/05 04:33:12;;;;;;;32.57;14.73;;;;;;;2.42;85.02;100466.33;127684;1091;104283;-73
2021/01/05 04:35:42;;;;;;;23.73;11.07;;;;;;;2.43;85.10;100457.77;127619;1092;104212;-74
2021/01/05 04:38:12;;;;;;;31.77;15.17;;;;;;;2.43;84.98;100462.03;127722;1092;104382;-74
2021/01/05 04:40:44;;;;;;;30.50;12.97;;;;;;;2.43;84.85;100457.77;127737;1092;104334;-76
2021/01/05 04:43:23;;;;;;;31.57;14.17;;;;;;;2.37;84.71;100456.44;127760;1091;104484;-73
2021/01/05 04:46:01;;;;;;;28.93;13.43;;;;;;;2.34;84.57;100468.39;127796;1091;104210;-74
2021/01/05 04:48:41;;;;;;;25.73;11.83;;;;;;;2.32;85.39;100464.81;127815;1091;104234;-73
2021/01/05 04:51:21;;;;;;;30.60;13.73;;;;;;;2.34;85.30;100475.27;127751;1091;104353;-73
2021/01/05 04:53:58;;;;;;;29.10;13.97;;;;;;;2.33;85.24;100469.17;127791;1092;104288;-74
2021/01/05 04:56:39;;;;;;;27.17;12.73;;;;;;;2.31;84.71;100472.48;127783;1091;104244;-74
2021/01/05 04:59:12;;;;;;;30.30;13.23;;;;;;;2.31;85.11;100462.12;127786;1091;104340;-73
2021/01/05 05:01:43;;;;;;;28.33;13.27;;;;;;;2.33;85.19;100458.81;127794;1091;104651;-73
2021/01/05 05:04:28;;;;;;;27.83;12.83;;;;;;;2.37;84.69;100457.36;127686;1092;104317;-74
2021/01/05 05:07:11;;;;;;;28.67;12.70;;;;;;;2.41;84.91;100468.81;127770;1091;104218;-73
2021/01/05 05:09:52;;;;;;;28.87;13.40;;;;;;;2.47;84.68;100480.47;127774;1092;104325;-73
2021/01/05 05:12:32;;;;;;;26.33;11.90;;;;;;;2.49;84.45;100472.80;127802;1092;104205;-73
2021/01/05 05:15:29;;;;;;;26.53;11.20;;;;;;;2.47;84.95;100464.05;127819;1091;104340;-72
2021/01/05 05:18:14;;;;;;;26.70;11.70;;;;;;;2.42;84.98;100471.50;127801;1092;104317;-73
2021/01/05 05:21:05;;;;;;;27.07;12.00;;;;;;;2.38;84.66;100479.84;127706;1091;104406;-74
2021/01/05 05:23:46;;;;;;;26.00;12.17;;;;;;;2.42;84.27;100475.80;127537;1092;104233;-74
2021/01/05 05:26:22;;;;;;;30.10;12.03;;;;;;;2.46;84.90;100489.06;127732;1091;104340;-74
2021/01/05 05:28:57;;;;;;;30.00;13.80;;;;;;;2.48;85.08;100490.05;127735;1091;104336;-76
2021/01/05 05:31:30;;;;;;;23.90;10.47;;;;;;;2.50;85.09;100491.05;127725;1092;104216;-77
2021/01/05 05:34:03;;;;;;;30.13;13.80;;;;;;;2.53;84.71;100494.66;127665;1091;104256;-74
2021/01/05 05:37:00;;;;;;;29.60;13.67;;;;;;;2.55;85.01;100493.05;127794;1092;104250;-74
2021/01/05 05:39:55;;;;;;;29.37;14.43;;;;;;;2.56;84.95;100476.73;127763;1091;104230;-74
2021/01/05 05:42:42;;;;;;;24.80;11.10;;;;;;;2.56;85.15;100469.84;127745;1091;104253;-74
2021/01/05 05:45:18;;;;;;;29.27;14.20;;;;;;;2.56;84.67;100479.32;127805;1092;104351;-74
2021/01/05 05:47:56;;;;;;;28.13;12.77;;;;;;;2.54;84.45;100488.66;127736;1092;104354;-75
2021/01/05 05:50:33;;;;;;;23.33;9.83;;;;;;;2.53;84.94;100484.30;127575;1092;104260;-75
2021/01/05 05:53:11;;;;;;;34.80;16.33;;;;;;;2.51;85.08;100495.44;127730;1091;104215;-76
2021/01/05 05:55:47;;;;;;;28.03;13.30;;;;;;;2.54;84.72;100501.61;127695;1091;104218;-73
2021/01/05 05:58:22;;;;;;;26.97;13.03;;;;;;;2.56;84.53;100495.75;127717;1091;104283;-73
2021/01/05 06:00:54;;;;;;;32.43;15.33;;;;;;;2.57;85.09;100486.27;127658;1091;104279;-73
2021/01/05 06:03:26;;;;;;;32.33;15.93;;;;;;;2.57;85.12;100474.24;127213;1092;104339;-72
2021/01/05 06:05:56;;;;;;;25.85;11.05;;;;;;;2.59;84.40;100474.34;127559;1091;104302;-74
2021/01/05 06:08:27;;;;;;;36.07;14.90;;;;;;;2.58;85.14;100495.86;127469;1092;104292;-78
2021/01/05 06:11:02;;;;;;;26.93;11.90;;;;;;;2.61;84.83;100489.17;127361;1092;104847;-75
2021/01/05 06:13:32;;;;;;;31.37;13.73;;;;;;;2.65;84.58;100479.91;128088;1092;104305;-75
2021/01/05 06:16:03;;;;;;;30.20;13.03;;;;;;;2.69;84.69;100481.92;127574;1091;104244;-76
2021/01/05 06:18:32;;;;;;;26.37;10.60;;;;;;;2.71;84.92;100488.09;127567;1091;104238;-73
2021/01/05 06:21:02;;;;;;;26.97;12.03;;;;;;;2.68;85.19;100480.11;127550;1091;104229;-78
2021/01/05 06:23:32;;;;;;;28.20;12.80;;;;;;;2.68;84.77;100499.17;127431;1092;104206;-74
2021/01/05 06:26:02;;;;;;;26.87;12.13;;;;;;;2.70;84.81;100507.05;127671;1092;104302;-76
2021/01/05 06:28:32;;;;;;;28.57;11.87;;;;;;;2.70;84.66;100509.64;127472;1091;104340;-74
2021/01/05 06:31:03;;;;;;;28.63;11.87;;;;;;;2.71;84.85;100493.27;127410;1091;104280;-75
2021/01/05 06:33:33;;;;;;;22.13;9.23;;;;;;;2.72;84.48;100494.19;127395;1092;104257;-73
2021/01/05 06:36:03;;;;;;;27.13;12.47;;;;;;;2.70;85.03;100504.45;127375;1092;104358;-74
2021/01/05 06:38:33;;;;;;;25.45;10.90;;;;;;;2.72;85.15;100501.97;127461;1091;104359;-74
2021/01/05 06:41:03;;;;;;;25.07;10.63;;;;;;;2.75;85.12;100503.06;127591;1091;104257;-72
2021/01/05 06:43:33;;;;;;;26.03;11.60;;;;;;;2.77;84.49;100497.98;127599;1092;104237;-72
2021/01/05 06:46:04;;;;;;;26.50;11.50;;;;;;;2.80;85.26;100506.84;127345;1092;104266;-76
2021/01/05 06:48:35;;;;;;;26.80;11.50;;;;;;;2.84;84.45;100493.31;127360;1091;104243;-73
2021/01/05 06:51:06;;;;;;;28.37;12.33;;;;;;;2.85;85.11;100504.56;127411;1091;104234;-77
2021/01/05 06:53:36;;;;;;;31.70;13.83;;;;;;;2.92;85.39;100500.70;127503;1092;104246;-75
2021/01/05 06:56:07;;;;;;;26.63;13.00;;;;;;;2.94;85.38;100478.36;127328;1092;104366;-79
2021/01/05 06:58:36;;;;;;;28.73;12.80;;;;;;;2.95;85.04;100475.88;127297;1091;104206;-78
2021/01/05 07:01:07;;;;;;;32.70;14.03;;;;;;;2.98;85.31;100468.30;127316;1092;104399;-76
2021/01/05 07:03:37;;;;;;;27.30;12.37;;;;;;;3.01;84.59;100465.91;127237;1092;104355;-75
2021/01/05 07:06:07;;;;;;;27.05;11.50;;;;;;;3.02;84.54;100451.23;127289;1091;104247;-76
2021/01/05 07:08:37;;;;;;;26.43;12.40;;;;;;;3.01;84.69;100463.31;127316;1092;104308;-75
2021/01/05 07:11:10;;;;;;;27.20;11.77;;;;;;;3.07;84.89;100465.42;127260;1092;104254;-75
2021/01/05 07:13:40;;;;;;;26.63;12.23;;;;;;;3.10;85.04;100464.70;127271;1091;104356;-75
2021/01/05 07:16:10;;;;;;;25.60;12.03;;;;;;;3.09;85.16;100463.81;127209;1092;104308;-76
2021/01/05 07:18:43;;;;;;;23.80;10.77;;;;;;;3.10;84.50;100467.30;127183;1092;104243;-77
2021/01/05 07:21:13;;;;;;;23.53;10.77;;;;;;;3.08;84.85;100464.60;127176;1093;104234;-76
2021/01/05 07:23:44;;;;;;;23.03;10.73;;;;;;;3.06;84.96;100456.72;127309;1093;104254;-75
2021/01/05 07:26:14;;;;;;;22.60;9.33;;;;;;;3.06;84.60;100461.02;127421;1092;104254;-76
2021/01/05 07:28:47;;;;;;;26.03;11.27;;;;;;;3.02;84.43;100474.57;127322;1091;104244;-74
2021/01/05 07:31:18;;;;;;;24.93;11.40;;;;;;;3.00;85.14;100471.88;127498;1092;104276;-73
2021/01/05 07:33:49;;;;;;;21.23;7.97;;;;;;;2.99;84.83;100480.48;127578;1092;104203;-75
2021/01/05 07:36:28;;;;;;;25.03;11.30;;;;;;;2.97;84.27;100479.45;127629;1091;104227;-75
2021/01/05 07:38:59;;;;;;;21.63;9.17;;;;;;;2.98;84.78;100464.82;127543;1091;104205;-72
2021/01/05 07:41:29;;;;;;;21.43;9.47;;;;;;;2.96;84.91;100476.76;127527;1092;104238;-78
2021/01/05 07:43:59;;;;;;;22.73;9.77;;;;;;;2.94;85.32;100473.18;127600;1092;104212;-73
2021/01/05 07:46:29;;;;;;;21.80;9.40;;;;;;;2.92;84.67;100475.67;127591;1092;104324;-76
2021/01/05 07:48:59;;;;;;;26.27;10.67;;;;;;;2.91;84.96;100468.68;127613;1092;104310;-76
2021/01/05 07:51:31;;;;;;;22.63;9.57;;;;;;;2.91;85.42;100460.91;127418;1091;104222;-74
2021/01/05 07:54:01;;;;;;;26.90;12.33;;;;;;;2.93;85.10;100456.74;127590;1092;104226;-77
2021/01/05 07:56:31;;;;;;;27.27;12.17;;;;;;;2.99;85.15;100459.73;127523;1091;104218;-74
2021/01/05 07:59:02;;;;;;;29.77;13.70;;;;;;;3.05;85.16;100464.41;127369;1092;104391;-77
2021/01/05 08:01:32;;;;;;;28.00;12.07;;;;;;;3.03;84.30;100464.30;127365;1091;104209;-82
2021/01/05 08:04:06;;;;;;;27.87;12.17;;;;;;;2.99;84.54;100474.37;127367;1092;104419;-80
2021/01/05 08:06:40;;;;;;;29.77;13.63;;;;;;;2.96;84.80;100477.68;127486;1093;104317;-77
2021/01/05 08:09:10;;;;;;;26.33;11.60;;;;;;;2.95;85.12;100474.98;127579;1092;104294;-77
2021/01/05 08:11:41;;;;;;;25.57;11.33;;;;;;;2.92;84.82;100464.42;127478;1093;104663;-79
2021/01/05 08:14:15;;;;;;;30.53;12.70;;;;;;;2.91;84.94;100467.80;127390;1092;104248;-78
2021/01/05 08:16:50;;;;;;;26.93;10.33;;;;;;;2.90;84.38;100458.21;127519;1092;104237;-78
2021/01/05 08:19:20;;;;;;;26.70;11.93;;;;;;;2.92;85.31;100456.64;127431;1092;104317;-80
2021/01/05 08:21:50;;;;;;;27.80;11.67;;;;;;;2.89;84.80;100465.10;127516;1092;104241;-79
2021/01/05 08:24:20;;;;;;;26.53;11.10;;;;;;;2.90;85.30;100463.40;127394;1092;104330;-79
2021/01/05 08:26:53;;;;;;;21.00;8.20;;;;;;;2.92;85.21;100454.05;127458;1091;104260;-80
2021/01/05 08:29:26;;;;;;;26.50;12.10;;;;;;;2.93;85.20;100456.74;127573;1091;104237;-76
2021/01/05 08:31:56;;;;;;;31.30;13.13;;;;;;;2.94;85.04;100453.33;127661;1093;104712;-81
2021/01/05 08:34:26;;;;;;;28.60;13.90;;;;;;;2.95;84.72;100444.77;127461;1091;104362;-78
2021/01/05 08:37:00;;;;;;;30.43;13.03;;;;;;;2.99;85.50;100435.48;127627;1091;104221;-77
2021/01/05 08:39:30;;;;;;;31.27;13.88;;;;;;;3.00;85.52;100427.81;127694;1092;104253;-77
2021/01/05 08:42:00;;;;;;;28.73;12.93;;;;;;;3.02;85.27;100430.50;127483;1091;104363;-77
2021/01/05 08:44:31;;;;;;;27.30;12.13;;;;;;;3.05;85.09;100430.70;127509;1092;104333;-78
2021/01/05 08:47:02;;;;;;;28.77;13.23;;;;;;;3.07;85.57;100418.75;127616;1091;104209;-77
2021/01/05 08:49:34;;;;;;;31.03;12.90;;;;;;;3.09;85.01;100417.15;127635;1091;104657;-73
2021/01/05 08:52:08;;;;;;;29.13;12.90;;;;;;;3.12;85.92;100409.56;127693;1092;104205;-74
2021/01/05 08:54:38;;;;;;;30.80;13.90;;;;;;;3.17;84.87;100402.97;127488;1091;104362;-77
2021/01/05 08:57:14;;;;;;;33.13;14.13;;;;;;;3.19;85.34;100401.36;127382;1092;104286;-74
2021/01/05 08:59:48;;;;;;;26.23;12.23;;;;;;;3.18;85.05;100389.21;127558;1092;104235;-77
2021/01/05 09:02:21;;;;;;;29.00;12.10;;;;;;;3.17;85.28;100378.74;127342;1092;104211;-74
2021/01/05 09:04:51;;;;;;;23.70;10.10;;;;;;;3.19;85.09;100380.61;127550;1091;104212;-79
2021/01/05 09:07:26;;;;;;;28.60;12.17;;;;;;;3.18;85.51;100365.87;127615;1092;104448;-77
2021/01/05 09:09:59;;;;;;;25.67;12.27;;;;;;;3.19;84.70;100365.05;127604;1092;104307;-76
2021/01/05 09:12:35;;;;;;;25.50;11.50;;;;;;;3.22;85.46;100367.84;127042;1095;104440;-79
2021/01/05 09:15:12;;;;;;;25.57;11.37;;;;;;;3.19;85.25;100356.39;127044;1095;104368;-79
2021/01/05 09:17:46;;;;;;;23.77;10.67;;;;;;;3.20;84.90;100350.41;127116;1094;104216;-79
2021/01/05 09:20:23;;;;;;;23.40;10.25;;;;;;;3.20;85.64;100335.73;127151;1095;104254;-76
2021/01/05 09:22:55;;;;;;;26.03;9.97;;;;;;;3.18;84.76;100331.25;126974;1095;104212;-76
2021/01/05 09:25:30;;;;;;;25.20;9.70;;;;;;;3.15;85.55;100329.38;127037;1095;104327;-78
2021/01/05 09:28:01;;;;;;;22.40;9.17;;;;;;;3.13;85.16;100325.81;126937;1094;104471;-80
2021/01/05 09:30:33;;;;;;;21.00;8.60;;;;;;;3.15;85.37;100323.31;126867;1095;104247;-76
2021/01/05 09:33:09;;;;;;;21.50;9.60;;;;;;;3.15;85.81;100324.20;127100;1095;104366;-77
2021/01/05 09:35:46;;;;;;;26.47;10.43;;;;;;;3.20;85.05;100327.08;126974;1094;104250;-77
2021/01/05 09:38:23;;;;;;;23.60;10.20;;;;;;;3.23;85.66;100320.38;127006;1095;104241;-78
2021/01/05 09:40:57;;;;;;;22.30;10.30;;;;;;;3.33;85.79;100315.75;127041;1095;104235;-77
2021/01/05 09:43:27;;;;;;;22.40;9.97;;;;;;;3.34;85.32;100309.78;127015;1093;104462;-77
2021/01/05 09:46:03;;;;;;;20.37;7.60;;;;;;;3.37;85.26;100297.00;127603;1092;104412;-76
2021/01/05 09:48:34;;;;;;;22.80;9.93;;;;;;;3.38;85.53;100301.36;127553;1092;104340;-75
2021/01/05 09:51:06;;;;;;;23.93;10.43;;;;;;;3.39;85.91;100308.35;128100;1091;104494;-75
2021/01/05 09:53:48;;;;;;;21.60;8.93;;;;;;;3.41;85.57;100304.14;127648;1091;104206;-72
2021/01/05 09:56:22;;;;;;;25.53;10.43;;;;;;;3.41;84.91;100285.98;127596;1092;104292;-76
2021/01/05 09:58:55;;;;;;;22.43;9.00;;;;;;;3.37;85.92;100284.03;127477;1092;104307;-77
2021/01/05 10:01:31;;;;;;;24.45;10.30;;;;;;;3.32;85.49;100285.42;127432;1092;104257;-77
2021/01/05 10:04:05;;;;;;;23.07;9.80;;;;;;;3.30;85.97;100280.14;127416;1092;104234;-78
2021/01/05 10:06:51;;;;;;;27.47;11.20;;;;;;;3.30;85.73;100287.92;127525;1092;104406;-77
2021/01/05 10:09:24;;;;;;;19.80;7.90;;;;;;;3.33;85.79;100272.55;127446;1092;104219;-76
2021/01/05 10:11:54;;;;;;;25.70;10.63;;;;;;;3.36;85.72;100272.73;127482;1091;104205;-77
2021/01/05 10:14:31;;;;;;;20.27;8.45;;;;;;;3.40;85.98;100266.06;127474;1091;104255;-77
2021/01/05 10:17:01;;;;;;;20.37;8.48;;;;;;;3.44;86.08;100259.34;127426;1091;104237;-76
2021/01/05 10:19:31;;;;;;;24.13;9.03;;;;;;;3.45;85.76;100261.16;127418;1091;104221;-74
2021/01/05 10:22:05;;;;;;;21.25;8.85;;;;;;;3.49;85.34;100257.91;127567;1092;104330;-75
2021/01/05 10:24:35;;;;;;;21.80;9.17;;;;;;;3.52;85.26;100259.02;127559;1091;104206;-76
2021/01/05 10:27:09;;;;;;;21.57;8.63;;;;;;;3.55;85.23;100243.63;127380;1091;104302;-77
2021/01/05 10:29:40;;;;;;;18.20;7.70;;;;;;;3.58;85.96;100254.20;127700;1092;104221;-77
2021/01/05 10:32:10;;;;;;;22.97;8.97;;;;;;;3.58;85.17;100248.09;127538;1091;104231;-80
2021/01/05 10:34:40;;;;;;;16.80;7.03;;;;;;;3.59;85.26;100260.27;127542;1091;104347;-77
2021/01/05 10:37:16;;;;;;;17.50;8.20;;;;;;;3.60;86.04;100249.10;127591;1092;104362;-78
2021/01/05 10:39:46;;;;;;;21.20;8.30;;;;;;;3.63;85.12;100241.50;127442;1091;104407;-78
2021/01/05 10:42:17;;;;;;;19.60;8.30;;;;;;;3.63;85.09;100248.36;127456;1092;104283;-76
2021/01/05 10:44:50;;;;;;;17.77;7.53;;;;;;;3.63;85.42;100235.39;127381;1092;104250;-78
2021/01/05 10:47:21;;;;;;;16.00;6.67;;;;;;;3.60;85.48;100244.80;127487;1091;104216;-77
2021/01/05 10:49:51;;;;;;;19.43;8.13;;;;;;;3.58;85.58;100237.71;127471;1091;104219;-75
2021/01/05 10:52:26;;;;;;;16.40;6.67;;;;;;;3.53;85.26;100233.95;127466;1092;104309;-77
2021/01/05 10:54:59;;;;;;;16.37;6.50;;;;;;;3.50;85.17;100239.84;127744;1092;104227;-76
2021/01/05 10:57:34;;;;;;;13.43;5.47;;;;;;;3.50;85.51;100237.25;127552;1091;104215;-76
2021/01/05 11:00:06;;;;;;;16.95;6.90;;;;;;;3.48;85.31;100241.47;127322;1091;104400;-76
2021/01/05 11:02:42;;;;;;;14.30;5.60;;;;;;;3.46;85.84;100230.11;128187;1091;104324;-80
2021/01/05 11:05:18;;;;;;;17.73;6.60;;;;;;;3.44;85.50;100231.70;128275;1092;103395;-78
2021/01/05 11:07:53;;;;;;;15.53;6.50;;;;;;;3.47;85.08;100238.78;127370;1092;104481;-76
2021/01/05 11:10:27;;;;;;;15.37;7.10;;;;;;;3.44;85.95;100236.89;127784;1091;104920;-76
2021/01/05 11:13:12;;;;;;;16.57;6.93;;;;;;;3.46;85.57;100250.87;128909;1092;101904;-75
2021/01/05 11:15:43;;;;;;;19.20;7.67;;;;;;;3.51;85.35;100241.65;128948;1092;103412;-77
2021/01/05 11:18:19;;;;;;;19.03;6.93;;;;;;;3.60;86.08;100234.41;127443;1091;104328;-76
2021/01/05 11:20:57;;;;;;;18.20;7.00;;;;;;;3.66;85.71;100227.78;127679;1091;104241;-77
2021/01/05 11:23:30;;;;;;;18.53;6.87;;;;;;;3.65;85.79;100216.52;127444;1092;104657;-76
2021/01/05 11:26:00;;;;;;;14.73;5.83;;;;;;;3.64;85.22;100208.65;127291;1092;104238;-76
2021/01/05 11:28:35;;;;;;;16.30;6.07;;;;;;;3.61;85.84;100211.95;127335;1092;104231;-77
2021/01/05 11:31:16;;;;;;;13.83;5.80;;;;;;;3.62;85.63;100212.86;128368;1095;102131;-76
2021/01/05 11:33:48;;;;;;;14.97;6.03;;;;;;;3.61;85.49;100214.55;128413;1095;102317;-76
2021/01/05 11:36:38;;;;;;;18.87;6.27;;;;;;;3.59;85.57;100209.27;127934;1095;103138;-77
2021/01/05 11:39:09;;;;;;;10.83;4.40;;;;;;;3.61;85.05;100206.76;126837;1095;104397;-77
2021/01/05 11:41:39;;;;;;;12.80;5.57;;;;;;;3.59;85.71;100201.48;126807;1095;104407;-75
2021/01/05 11:44:09;;;;;;;11.13;5.07;;;;;;;3.57;85.83;100216.07;126727;1095;104238;-76